Time;durP1;ratioP1;P1;durP2;ratioP2;P2;SDS_P1;SDS_P2;PMS_P1;PMS_P2;Temp;Humidity;BMP_temperature;BMP_pressure;BME280_temperature;BME280_humidity;BME280_pressure;Samples;Min_cycle;Max_cycle;Signal;HPM_P1;HPM_P2
2022/11/16 00:02:19;;;;;;;13.80;12.37;;;;;;;5.35;100.00;95200.84;5028947;28;101808;-63
2022/11/16 00:04:46;;;;;;;13.77;12.27;;;;;;;5.30;100.00;95201.56;5013731;28;105253;-63
2022/11/16 00:07:13;;;;;;;13.63;11.50;;;;;;;5.39;100.00;95194.00;5029266;28;101650;-63
2022/11/16 00:09:40;;;;;;;14.07;12.03;;;;;;;5.44;100.00;95180.88;5028752;28;102471;-63
2022/11/16 00:12:11;;;;;;;16.97;12.37;;;;;;;5.45;100.00;95177.22;5010163;28;105491;-63
2022/11/16 00:14:38;;;;;;;15.97;12.70;;;;;;;5.41;100.00;95165.56;5029186;28;101856;-63
2022/11/16 00:17:07;;;;;;;13.53;12.13;;;;;;;5.43;100.00;95164.28;5010781;28;104096;-63
2022/11/16 00:19:34;;;;;;;14.37;12.13;;;;;;;5.43;100.00;95163.47;5010304;28;105335;-63
2022/11/16 00:22:01;;;;;;;14.17;11.87;;;;;;;5.39;100.00;95151.81;5029174;28;101794;-63
2022/11/16 00:24:28;;;;;;;14.77;12.40;;;;;;;5.43;100.00;95140.56;5010558;28;105418;-63
2022/11/16 00:26:55;;;;;;;16.53;12.70;;;;;;;5.39;100.00;95136.00;5031640;28;102137;-63
2022/11/16 00:29:24;;;;;;;14.17;12.47;;;;;;;5.42;100.00;95123.16;5010536;28;105520;-63
2022/11/16 00:31:52;;;;;;;14.23;11.70;;;;;;;5.31;100.00;95110.13;5010096;28;105506;-63
2022/11/16 00:34:23;;;;;;;12.40;11.10;;;;;;;5.35;100.00;95113.84;5010636;28;102118;-63
2022/11/16 00:36:50;;;;;;;12.30;10.30;;;;;;;5.16;100.00;95107.31;5010572;28;105479;-63
2022/11/16 00:39:18;;;;;;;12.40;9.87;;;;;;;5.05;100.00;95101.16;5009779;28;105330;-63
2022/11/16 00:41:48;;;;;;;13.47;10.77;;;;;;;5.09;100.00;95098.81;5011723;28;101870;-63
2022/11/16 00:44:15;;;;;;;11.90;9.77;;;;;;;5.16;100.00;95084.41;5010384;28;105506;-63
2022/11/16 00:46:42;;;;;;;12.33;10.27;;;;;;;5.13;100.00;95087.53;5013817;28;105310;-63
2022/11/16 00:49:10;;;;;;;15.23;11.43;;;;;;;5.09;100.00;95083.00;5011468;28;104135;-63
2022/11/16 00:51:40;;;;;;;14.47;11.17;;;;;;;5.11;100.00;95075.66;5013078;28;105669;-63
2022/11/16 00:54:09;;;;;;;14.67;11.37;;;;;;;5.11;100.00;95073.00;5013932;28;101742;-63
2022/11/16 00:56:37;;;;;;;12.30;10.63;;;;;;;4.96;100.00;95073.66;5013750;28;104991;-63
2022/11/16 00:59:06;;;;;;;12.43;10.97;;;;;;;5.00;100.00;95080.03;5013070;28;105027;-63
2022/11/16 01:01:36;;;;;;;13.43;11.30;;;;;;;4.98;100.00;95084.75;5013466;28;101911;-63
2022/11/16 01:04:04;;;;;;;12.93;10.83;;;;;;;4.95;100.00;95097.59;5013777;28;105895;-63
2022/11/16 01:06:30;;;;;;;11.70;10.50;;;;;;;4.95;100.00;95102.88;5031215;28;102765;-63
2022/11/16 01:09:00;;;;;;;13.20;11.67;;;;;;;4.93;100.00;95099.69;5016669;28;101850;-63
2022/11/16 01:14:11;;;;;;;14.77;11.90;;;;;;;4.93;100.00;95104.97;5013289;28;101772;-63
2022/11/16 01:16:38;;;;;;;13.27;11.87;;;;;;;4.89;100.00;95107.28;5013380;28;103627;-61
2022/11/16 01:19:05;;;;;;;14.67;12.60;;;;;;;4.82;100.00;95106.69;5030899;28;101750;-61
2022/11/16 01:21:33;;;;;;;17.57;14.33;;;;;;;4.79;100.00;95109.00;5031584;28;101858;-61
2022/11/16 01:24:02;;;;;;;15.87;13.70;;;;;;;4.75;100.00;95102.66;5031631;28;101627;-61
2022/11/16 01:26:29;;;;;;;16.87;14.20;;;;;;;4.72;100.00;95101.31;5030849;28;102569;-61
2022/11/16 01:28:58;;;;;;;18.60;15.60;;;;;;;4.68;100.00;95107.28;5013160;28;101869;-61
2022/11/16 01:31:28;;;;;;;19.43;15.27;;;;;;;4.63;100.00;95108.03;5016245;28;105362;-61
2022/11/16 01:33:55;;;;;;;17.70;15.10;;;;;;;4.69;100.00;95106.28;5012950;28;101870;-61
2022/11/16 01:36:26;;;;;;;18.60;15.67;;;;;;;4.75;100.00;95102.66;5013239;28;104989;-61
2022/11/16 01:38:55;;;;;;;19.67;16.30;;;;;;;4.79;100.00;95106.38;5012528;28;105246;-61
2022/11/16 01:41:27;;;;;;;19.87;15.53;;;;;;;4.75;100.00;95108.69;5012975;28;101821;-61
2022/11/16 01:44:01;;;;;;;19.30;15.77;;;;;;;4.79;100.00;95098.47;5012921;28;105167;-61
2022/11/16 01:46:34;;;;;;;20.23;16.07;;;;;;;4.82;100.00;95095.34;5008499;28;105460;-61
2022/11/16 01:49:07;;;;;;;15.97;14.27;;;;;;;4.83;100.00;95091.69;5009618;28;101865;-61
2022/11/16 01:51:35;;;;;;;18.60;15.67;;;;;;;4.92;100.00;95098.09;5009503;28;105017;-61
2022/11/16 01:54:07;;;;;;;19.23;14.80;;;;;;;5.03;100.00;95086.63;5012442;28;105379;-61
2022/11/16 01:56:39;;;;;;;18.50;14.70;;;;;;;5.12;100.00;95082.53;5009308;28;104911;-63
2022/11/16 01:59:14;;;;;;;16.73;14.73;;;;;;;5.18;100.00;95069.13;5008921;28;105665;-63
2022/11/16 02:01:42;;;;;;;18.13;14.63;;;;;;;5.25;100.00;95071.59;5009106;28;102647;-63
2022/11/16 02:04:11;;;;;;;16.83;14.90;;;;;;;5.26;100.00;95062.63;5009269;28;104766;-63
2022/11/16 02:06:55;;;;;;;16.43;13.80;;;;;;;5.19;100.00;95056.78;4993147;28;105486;-63
2022/11/16 02:09:52;;;;;;;15.23;13.33;;;;;;;5.13;100.00;95057.78;5009071;28;101945;-63
2022/11/16 02:12:59;;;;;;;16.97;13.80;;;;;;;5.12;100.00;95050.91;5009271;28;103811;-63
2022/11/16 02:15:40;;;;;;;16.87;13.13;;;;;;;5.22;100.00;95056.25;5008715;28;105017;-63
2022/11/16 02:18:27;;;;;;;17.07;13.93;;;;;;;5.27;100.00;95051.03;5012584;28;101808;-63
2022/11/16 02:21:20;;;;;;;16.27;14.17;;;;;;;5.35;100.00;95050.59;5008711;28;105453;-63
2022/11/16 02:24:17;;;;;;;16.70;13.23;;;;;;;5.38;100.00;95050.91;5010156;28;101945;-63
2022/11/16 02:27:03;;;;;;;18.00;14.03;;;;;;;5.42;100.00;95045.91;4996511;28;105157;-63
2022/11/16 02:29:37;;;;;;;15.97;13.27;;;;;;;5.46;100.00;95047.00;5008696;28;105468;-63
2022/11/16 02:32:09;;;;;;;21.17;12.57;;;;;;;5.42;100.00;95040.63;5009176;28;102088;-63
2022/11/16 02:34:42;;;;;;;15.43;12.77;;;;;;;5.40;100.00;95034.84;5008696;28;104810;-63
2022/11/16 02:37:12;;;;;;;15.37;13.30;;;;;;;5.32;100.00;95045.81;5009926;28;102485;-63
2022/11/16 02:39:42;;;;;;;16.27;13.70;;;;;;;5.34;100.00;95036.63;5012228;28;101867;-63
2022/11/16 02:42:17;;;;;;;16.93;14.13;;;;;;;5.27;100.00;95037.88;5008240;28;105388;-63
2022/11/16 02:44:48;;;;;;;16.53;14.10;;;;;;;5.16;100.00;95037.00;5008760;28;102217;-63
2022/11/16 02:47:20;;;;;;;17.30;13.93;;;;;;;5.15;100.00;95034.59;5008625;28;104811;-63
2022/11/16 02:49:54;;;;;;;16.93;14.17;;;;;;;5.21;100.00;95034.41;5008033;28;105046;-63
2022/11/16 02:52:23;;;;;;;16.43;13.23;;;;;;;5.19;100.00;95027.78;5008836;28;101746;-63
2022/11/16 02:54:50;;;;;;;15.43;13.37;;;;;;;5.24;100.00;95023.34;5008577;28;105256;-63
2022/11/16 02:57:32;;;;;;;18.30;14.33;;;;;;;5.26;100.00;95020.47;5009321;28;102541;-63
2022/11/16 03:00:02;;;;;;;16.93;13.03;;;;;;;5.23;100.00;95016.50;5009786;28;101678;-63
2022/11/16 03:02:43;;;;;;;16.97;13.67;;;;;;;5.20;100.00;95006.47;5011555;28;105176;-63
2022/11/16 03:05:15;;;;;;;20.77;14.50;;;;;;;5.23;100.00;95005.94;5008359;28;101799;-63
2022/11/16 03:07:55;;;;;;;17.00;13.93;;;;;;;5.36;100.00;95005.53;5008316;28;104071;-63
2022/11/16 03:13:09;;;;;;;15.67;13.83;;;;;;;5.11;100.00;95038.75;5006915;28;101936;-63
2022/11/16 03:15:40;;;;;;;16.80;14.40;;;;;;;4.98;100.00;95018.91;5008406;28;104936;-63
2022/11/16 03:18:09;;;;;;;16.17;14.23;;;;;;;5.01;100.00;95007.84;5007735;28;105616;-63
2022/11/16 03:20:39;;;;;;;16.10;14.40;;;;;;;4.88;100.00;95023.25;5008280;28;101934;-63
2022/11/16 03:23:10;;;;;;;17.43;14.93;;;;;;;4.98;100.00;95010.19;5008144;28;105218;-63
2022/11/16 03:25:44;;;;;;;19.03;14.53;;;;;;;5.02;100.00;95013.94;5010933;28;105385;-63
2022/11/16 03:28:16;;;;;;;16.87;14.53;;;;;;;4.90;100.00;95018.53;5007942;28;105594;-63
2022/11/16 03:30:52;;;;;;;15.97;14.23;;;;;;;4.94;100.00;95022.25;5007652;28;105744;-63
2022/11/16 03:33:24;;;;;;;17.10;14.70;;;;;;;4.82;100.00;95019.00;5008297;28;102058;-63
2022/11/16 03:35:58;;;;;;;16.50;14.70;;;;;;;4.83;100.00;95025.84;5008005;28;105743;-63
2022/11/16 03:38:27;;;;;;;18.17;15.37;;;;;;;4.80;100.00;95021.84;5007434;28;105321;-63
2022/11/16 03:40:58;;;;;;;17.77;14.93;;;;;;;4.73;100.00;95031.00;5008129;28;101905;-63
2022/11/16 03:43:28;;;;;;;18.47;15.07;;;;;;;4.73;100.00;95025.72;5007702;28;104752;-63
2022/11/16 03:45:57;;;;;;;18.20;15.20;;;;;;;4.71;100.00;95033.09;5006801;28;105140;-63
2022/11/16 03:48:25;;;;;;;17.37;15.30;;;;;;;4.70;100.00;95029.66;5012596;28;102335;-63
2022/11/16 03:50:52;;;;;;;17.00;15.20;;;;;;;4.74;100.00;95040.50;5007280;28;104397;-63
2022/11/16 03:53:20;;;;;;;17.23;14.67;;;;;;;4.74;100.00;95041.28;5007578;28;102118;-63
2022/11/16 03:55:47;;;;;;;19.43;15.37;;;;;;;4.70;100.00;95048.06;5007791;28;105175;-63
2022/11/16 03:58:17;;;;;;;17.13;14.70;;;;;;;4.72;100.00;95051.28;5006881;28;105652;-63
2022/11/16 04:00:45;;;;;;;17.40;14.73;;;;;;;4.71;100.00;95054.16;5007824;28;101980;-63
2022/11/16 04:03:14;;;;;;;16.43;14.47;;;;;;;4.66;100.00;95056.72;5007608;28;105423;-63
2022/11/16 04:25:25;;;;;;;15.10;13.40;;;;;;;4.56;100.00;95109.25;5010217;28;105370;-63
2022/11/16 04:38:52;;;;;;;14.73;13.13;;;;;;;4.80;100.00;95100.06;5010479;28;105115;-63
2022/11/16 04:44:02;;;;;;;15.07;13.20;;;;;;;4.94;100.00;95114.44;4979952;28;102074;-63
2022/11/16 04:49:14;;;;;;;15.20;13.00;;;;;;;4.85;100.00;95121.22;5010115;28;105190;-63
2022/11/16 04:51:43;;;;;;;14.60;13.07;;;;;;;4.94;100.00;95130.25;5010480;28;101997;-63
2022/11/16 04:54:11;;;;;;;15.40;13.70;;;;;;;4.95;100.00;95129.22;5010553;28;105428;-63
2022/11/16 04:56:38;;;;;;;15.63;13.83;;;;;;;4.94;100.00;95125.00;5014620;28;102817;-63
2022/11/16 04:59:06;;;;;;;14.40;12.87;;;;;;;4.91;100.00;95134.19;5010510;28;104897;-63
2022/11/16 05:04:18;;;;;;;14.80;13.20;;;;;;;5.02;100.00;95141.16;5010122;28;101808;-63
2022/11/16 05:06:47;;;;;;;14.67;13.07;;;;;;;4.98;100.00;95150.63;5010440;28;105185;-63
2022/11/16 05:09:15;;;;;;;15.27;12.80;;;;;;;5.04;100.00;95160.16;5009590;28;105331;-63
2022/11/16 05:11:42;;;;;;;15.17;13.03;;;;;;;4.97;100.00;95154.25;5010432;28;101994;-63
2022/11/16 05:14:10;;;;;;;14.03;12.53;;;;;;;5.01;100.00;95165.91;5010370;28;105219;-63
2022/11/16 05:16:39;;;;;;;14.20;12.70;;;;;;;4.87;100.00;95177.06;5009854;28;105863;-63
2022/11/16 05:21:52;;;;;;;14.23;12.47;;;;;;;4.89;100.00;95190.75;5009536;28;105801;-63
2022/11/16 05:24:34;;;;;;;17.27;13.43;;;;;;;4.85;100.00;95192.31;5010021;28;101896;-63
2022/11/16 05:27:04;;;;;;;15.90;14.17;;;;;;;4.88;100.00;95176.81;5010112;28;105363;-63
2022/11/16 05:29:31;;;;;;;18.20;14.43;;;;;;;4.97;100.00;95180.59;5009344;28;105439;-63
2022/11/16 05:31:59;;;;;;;14.90;13.30;;;;;;;5.02;100.00;95183.31;5009709;28;102269;-63
2022/11/16 05:34:27;;;;;;;14.80;13.20;;;;;;;5.06;100.00;95183.59;5009526;28;104607;-63
2022/11/16 05:37:01;;;;;;;16.07;13.67;;;;;;;5.05;100.00;95182.81;5009338;28;104968;-63
2022/11/16 05:39:29;;;;;;;17.13;13.97;;;;;;;5.16;100.00;95181.09;5009984;28;102025;-63
2022/11/16 05:41:57;;;;;;;27.00;23.17;;;;;;;5.15;100.00;95187.41;5014095;28;102534;-63
2022/11/16 05:44:24;;;;;;;23.47;20.80;;;;;;;5.21;100.00;95186.44;5009704;28;101820;-63
2022/11/16 05:46:54;;;;;;;22.37;18.20;;;;;;;5.29;100.00;95199.19;5009573;28;105257;-63
2022/11/16 05:49:21;;;;;;;17.97;15.97;;;;;;;5.34;100.00;95196.63;5009009;28;105493;-63
2022/11/16 05:51:49;;;;;;;17.80;15.07;;;;;;;5.40;100.00;95200.91;5009615;28;102351;-63
2022/11/16 05:54:23;;;;;;;16.70;13.10;;;;;;;5.41;100.00;95203.25;5009661;28;103890;-63
2022/11/16 05:56:50;;;;;;;15.63;13.53;;;;;;;5.37;100.00;95201.38;5008897;28;105032;-63
2022/11/16 05:59:21;;;;;;;14.73;13.23;;;;;;;5.39;100.00;95208.00;4998692;28;101936;-63
2022/11/16 06:01:52;;;;;;;14.13;12.63;;;;;;;5.48;100.00;95203.06;4990007;28;105158;-63
2022/11/16 06:04:19;;;;;;;15.50;13.20;;;;;;;5.54;100.00;95204.72;4992696;28;105592;-63
2022/11/16 06:10:10;;;;;;;18.60;15.40;;;;;;;5.66;100.00;95203.53;4990287;28;103100;-63
2022/11/16 06:12:41;;;;;;;27.70;22.93;;;;;;;5.68;100.00;95200.66;4989567;28;101940;-63
2022/11/16 06:15:09;;;;;;;29.77;22.50;;;;;;;5.75;100.00;95211.81;4989598;28;105734;-63
2022/11/16 06:17:37;;;;;;;37.17;30.37;;;;;;;5.72;100.00;95217.59;4988936;28;105126;-63
2022/11/16 06:20:04;;;;;;;34.73;28.23;;;;;;;5.77;100.00;95207.88;4989559;28;102014;-63
2022/11/16 06:22:39;;;;;;;23.47;18.67;;;;;;;5.85;100.00;95215.34;4989301;28;105202;-63
2022/11/16 06:25:07;;;;;;;25.67;20.57;;;;;;;5.85;100.00;95214.56;4988789;28;105151;-64
2022/11/16 06:27:40;;;;;;;26.97;20.60;;;;;;;5.85;100.00;95214.56;4992897;28;101949;-64
2022/11/16 06:30:09;;;;;;;27.13;21.03;;;;;;;5.89;100.00;95218.31;4988770;28;103994;-64
2022/11/16 06:33:12;;;;;;;19.07;16.57;;;;;;;5.89;100.00;95211.19;4989178;28;101878;-63
2022/11/16 06:35:39;;;;;;;19.83;14.70;;;;;;;5.86;100.00;95216.16;4989350;28;105746;-63
2022/11/16 06:38:08;;;;;;;17.40;14.70;;;;;;;5.79;100.00;95215.53;4988640;28;105451;-63
2022/11/16 06:40:35;;;;;;;15.07;13.47;;;;;;;5.90;100.00;95214.63;4989039;28;101851;-63
2022/11/16 06:43:19;;;;;;;14.67;13.10;;;;;;;5.80;100.00;95217.16;4988582;28;104973;-63
2022/11/16 06:45:49;;;;;;;15.77;14.07;;;;;;;5.78;100.00;95217.38;4987935;28;105239;-63
2022/11/16 06:48:17;;;;;;;14.77;13.13;;;;;;;5.83;100.00;95221.97;4989764;28;101744;-63
2022/11/16 06:50:45;;;;;;;15.60;13.73;;;;;;;5.73;100.00;95222.59;4992007;28;103697;-63
2022/11/16 06:53:24;;;;;;;17.33;13.60;;;;;;;5.71;100.00;95218.63;4989012;28;101981;-63
2022/11/16 06:55:53;;;;;;;16.10;13.87;;;;;;;5.80;100.00;95222.44;4989679;28;101811;-63
2022/11/16 06:58:21;;;;;;;18.03;13.73;;;;;;;5.84;100.00;95226.19;4988454;28;105693;-63
2022/11/16 07:00:49;;;;;;;15.20;13.47;;;;;;;5.87;100.00;95229.13;4988966;28;101871;-63
2022/11/16 07:03:53;;;;;;;16.97;15.13;;;;;;;5.91;100.00;95232.03;4988860;28;104663;-63
2022/11/16 07:09:46;;;;;;;15.80;14.00;;;;;;;5.90;100.00;95231.25;4988691;28;101819;-63
2022/11/16 07:12:44;;;;;;;18.37;16.30;;;;;;;5.92;100.00;95225.72;4991646;28;105318;-63
2022/11/16 07:15:15;;;;;;;20.73;17.53;;;;;;;5.92;100.00;95228.34;4988659;28;101810;-63
2022/11/16 07:17:45;;;;;;;20.63;17.57;;;;;;;5.95;100.00;95233.16;4988709;28;105420;-63
2022/11/16 07:20:12;;;;;;;19.23;16.43;;;;;;;6.00;100.00;95225.28;4987687;28;105350;-63
2022/11/16 07:23:04;;;;;;;19.07;16.90;;;;;;;6.06;100.00;95221.63;4988290;28;101922;-63
2022/11/16 07:25:33;;;;;;;20.73;16.83;;;;;;;6.06;100.00;95221.63;4987755;28;104226;-63
2022/11/16 07:28:03;;;;;;;19.97;16.90;;;;;;;6.08;100.00;95224.81;4987807;28;105167;-63
2022/11/16 07:30:33;;;;;;;19.33;17.27;;;;;;;6.10;100.00;95226.16;4988098;28;102066;-63
2022/11/16 07:33:07;;;;;;;21.23;18.57;;;;;;;6.11;100.00;95224.34;4988089;28;105184;-63
2022/11/16 07:35:52;;;;;;;19.90;16.43;;;;;;;6.13;100.00;95222.22;4988632;28;102198;-63
2022/11/16 07:38:19;;;;;;;21.73;18.70;;;;;;;6.18;100.00;95222.28;4987585;28;103705;-63
2022/11/16 07:40:46;;;;;;;22.90;18.27;;;;;;;6.33;100.00;95222.41;4986921;28;104324;-63
2022/11/16 07:43:17;;;;;;;23.13;17.47;;;;;;;6.27;100.00;95223.41;4987093;28;102062;-63
2022/11/16 07:46:24;;;;;;;18.97;15.83;;;;;;;6.36;100.00;95217.41;4985164;28;103349;-63
2022/11/16 07:48:52;;;;;;;17.53;15.63;;;;;;;6.34;100.00;95224.78;5010032;28;105078;-63
2022/11/16 07:51:24;;;;;;;16.57;14.77;;;;;;;6.42;100.00;95224.31;5026047;28;101792;-63
2022/11/16 07:54:12;;;;;;;17.37;15.47;;;;;;;6.52;100.00;95227.03;5010667;28;105274;-63
2022/11/16 07:56:39;;;;;;;19.50;15.83;;;;;;;6.42;100.00;95228.78;5009667;28;105201;-63
2022/11/16 07:59:07;;;;;;;20.90;17.47;;;;;;;6.37;100.00;95226.13;5015805;28;101931;-63
2022/11/16 08:01:46;;;;;;;19.83;16.87;;;;;;;6.31;100.00;95229.75;5013878;28;103933;-63
2022/11/16 08:04:14;;;;;;;18.53;16.13;;;;;;;6.32;100.00;95231.38;5014405;28;102091;-63
2022/11/16 08:06:43;;;;;;;18.57;16.57;;;;;;;6.32;100.00;95234.03;5014249;28;105301;-63
2022/11/16 08:09:10;;;;;;;18.43;16.07;;;;;;;6.19;100.00;95237.88;4996952;28;105617;-63
2022/11/16 08:11:38;;;;;;;19.23;16.10;;;;;;;6.26;100.00;95237.63;5014412;28;101939;-63
2022/11/16 08:14:05;;;;;;;16.93;14.70;;;;;;;6.31;100.00;95235.03;5032929;28;102854;-63
2022/11/16 08:16:33;;;;;;;17.00;15.30;;;;;;;6.37;100.00;95228.75;5032202;28;102674;-63
2022/11/16 08:19:09;;;;;;;17.80;15.90;;;;;;;6.45;100.00;95236.22;5013994;28;101887;-63
2022/11/16 08:21:37;;;;;;;18.13;15.47;;;;;;;6.50;100.00;95237.03;5017119;28;105096;-63
2022/11/16 08:24:05;;;;;;;17.17;15.37;;;;;;;6.48;100.00;95236.50;5014281;28;101873;-63
2022/11/16 08:26:36;;;;;;;18.90;14.93;;;;;;;6.54;100.00;95237.34;5014037;28;104881;-63
2022/11/16 08:29:08;;;;;;;16.00;14.30;;;;;;;6.55;100.00;95238.94;5013652;28;105766;-63
2022/11/16 08:31:39;;;;;;;16.60;14.80;;;;;;;6.57;100.00;95224.44;5013891;28;102654;-63
2022/11/16 08:34:13;;;;;;;15.80;13.67;;;;;;;6.62;100.00;95232.41;5014146;28;105281;-63
2022/11/16 08:36:43;;;;;;;32.30;23.03;;;;;;;6.66;100.00;95232.69;5013556;28;105115;-63
2022/11/16 08:39:10;;;;;;;20.60;16.37;;;;;;;6.72;100.00;95231.66;5032195;27;102144;-63
2022/11/16 08:41:40;;;;;;;16.53;14.70;;;;;;;6.77;100.00;95232.50;5013752;28;104912;-63
2022/11/16 08:44:08;;;;;;;17.53;15.63;;;;;;;6.83;100.00;95226.19;5016731;28;104060;-63
2022/11/16 08:46:38;;;;;;;17.67;15.33;;;;;;;6.88;100.00;95233.38;5013688;28;105301;-63
2022/11/16 08:49:19;;;;;;;18.83;15.50;;;;;;;6.89;100.00;95233.13;5013157;28;105898;-63
2022/11/16 08:51:47;;;;;;;18.90;15.60;;;;;;;6.87;100.00;95231.78;5013608;28;102088;-63
2022/11/16 08:54:14;;;;;;;16.53;14.67;;;;;;;6.96;100.00;95232.88;5013736;28;105122;-63
2022/11/16 08:56:42;;;;;;;19.00;16.10;;;;;;;7.00;100.00;95233.97;5012946;28;105336;-63
2022/11/16 08:59:11;;;;;;;18.27;16.07;;;;;;;7.06;100.00;95233.75;5013632;28;101868;-63
2022/11/16 09:01:43;;;;;;;17.90;15.87;;;;;;;7.19;100.00;95237.78;5013617;28;105167;-63
2022/11/16 09:04:10;;;;;;;19.03;16.60;;;;;;;7.25;100.00;95234.88;5012962;28;105395;-63
2022/11/16 09:06:39;;;;;;;19.43;17.33;;;;;;;7.32;100.00;95230.16;5035478;28;101745;-63
2022/11/16 09:09:06;;;;;;;17.60;15.63;;;;;;;7.31;100.00;95238.34;5030665;27;103114;-63
2022/11/16 09:11:33;;;;;;;20.80;17.77;;;;;;;7.33;100.00;95233.59;5030987;28;101833;-63
2022/11/16 09:14:00;;;;;;;22.23;18.07;;;;;;;7.39;100.00;95232.56;5031348;28;102902;-63
2022/11/16 09:16:27;;;;;;;19.87;17.43;;;;;;;7.27;100.00;95239.91;5031143;28;102555;-63
2022/11/16 09:18:55;;;;;;;18.03;16.13;;;;;;;7.33;100.00;95244.97;5031672;28;101684;-64
2022/11/16 09:21:24;;;;;;;17.90;15.63;;;;;;;7.41;100.00;95241.84;5031303;28;102293;-63
2022/11/16 09:23:54;;;;;;;19.90;17.13;;;;;;;7.31;100.00;95241.78;5030771;28;102548;-64
2022/11/16 09:26:21;;;;;;;27.17;18.73;;;;;;;7.31;100.00;95251.59;5034590;28;101826;-64
2022/11/16 09:28:54;;;;;;;24.07;19.70;;;;;;;6.99;100.00;95248.22;5012898;28;105681;-64
2022/11/16 09:31:22;;;;;;;23.73;19.13;;;;;;;7.15;100.00;95245.41;5031569;28;102315;-64
2022/11/16 09:33:48;;;;;;;23.13;17.60;;;;;;;7.11;100.00;95246.19;5031132;28;102965;-64
2022/11/16 09:36:16;;;;;;;20.83;17.87;;;;;;;7.10;100.00;95242.72;5031198;28;103172;-64
2022/11/16 09:38:45;;;;;;;20.67;17.50;;;;;;;7.17;100.00;95245.97;5031139;27;101701;-64
2022/11/16 09:41:30;;;;;;;23.63;19.53;;;;;;;7.20;100.00;95247.28;5012832;28;105234;-64
2022/11/16 09:44:07;;;;;;;28.30;18.80;;;;;;;7.33;100.00;95244.19;5012482;28;103929;-64
2022/11/16 09:46:39;;;;;;;36.43;21.27;;;;;;;7.31;100.00;95251.59;5030768;28;101770;-64
2022/11/16 09:49:12;;;;;;;24.80;21.33;;;;;;;7.49;100.00;95244.00;5034080;28;102435;-64
2022/11/16 09:51:42;;;;;;;26.53;22.70;;;;;;;7.53;100.00;95244.28;5031210;28;101758;-64
2022/11/16 09:54:15;;;;;;;28.20;22.27;;;;;;;7.49;100.00;95237.91;5030954;28;102371;-64
2022/11/16 09:56:47;;;;;;;28.23;20.10;;;;;;;7.59;100.00;95237.94;5012075;28;105619;-64
2022/11/16 09:59:21;;;;;;;24.53;19.80;;;;;;;7.69;100.00;95238.75;5030807;28;101768;-64
2022/11/16 10:01:55;;;;;;;26.60;19.10;;;;;;;7.69;100.00;95235.34;5012856;28;105690;-64
2022/11/16 10:04:35;;;;;;;19.87;17.77;;;;;;;7.76;100.00;95238.53;5030640;28;103026;-64
2022/11/16 10:07:07;;;;;;;19.63;16.97;;;;;;;7.98;100.00;95244.41;5012783;28;102197;-64
2022/11/16 10:09:35;;;;;;;18.00;16.10;;;;;;;7.89;100.00;95233.53;5012102;28;105034;-64
2022/11/16 10:12:14;;;;;;;19.80;17.27;;;;;;;7.95;100.00;95229.03;5033611;28;102720;-64
2022/11/16 10:15:00;;;;;;;18.33;15.93;;;;;;;8.12;100.00;95230.41;5012529;28;105266;-64
2022/11/16 10:17:38;;;;;;;18.77;16.30;;;;;;;8.20;100.00;95221.16;5012300;28;104047;-64
2022/11/16 10:20:22;;;;;;;18.97;16.93;;;;;;;8.20;100.00;95231.75;5012304;28;101776;-64
2022/11/16 10:23:00;;;;;;;20.13;16.13;;;;;;;8.20;100.00;95213.22;5030484;27;102275;-64
2022/11/16 10:25:33;;;;;;;21.10;17.40;;;;;;;8.23;100.00;95228.59;5030295;28;102502;-64
2022/11/16 10:28:21;;;;;;;26.73;21.00;;;;;;;8.05;100.00;95221.09;5012384;28;101794;-64
2022/11/16 10:30:56;;;;;;;25.63;20.93;;;;;;;8.13;100.00;95212.66;5012111;28;105598;-64
2022/11/16 10:33:33;;;;;;;25.73;21.03;;;;;;;8.01;100.00;95226.13;5011586;28;105861;-64
2022/11/16 10:36:09;;;;;;;22.87;19.10;;;;;;;8.15;100.00;95219.28;5032865;28;103586;-64
2022/11/16 10:38:36;;;;;;;21.40;17.40;;;;;;;8.18;100.00;95226.69;5010898;28;105765;-64
2022/11/16 10:41:17;;;;;;;24.10;19.63;;;;;;;8.12;100.00;95224.31;5029618;28;101824;-64
2022/11/16 10:43:47;;;;;;;23.07;18.50;;;;;;;8.27;100.00;95224.34;5010657;28;105188;-64
2022/11/16 10:46:20;;;;;;;27.03;19.17;;;;;;;8.18;100.00;95226.69;5009845;28;105298;-64
2022/11/16 10:48:56;;;;;;;23.63;16.93;;;;;;;8.21;100.00;95225.41;4993538;28;102289;-64
2022/11/16 10:51:23;;;;;;;20.67;16.20;;;;;;;8.23;100.00;95223.31;5008687;28;105115;-64
2022/11/16 10:53:51;;;;;;;18.73;16.17;;;;;;;8.24;100.00;95217.72;5010472;28;105791;-64
2022/11/16 10:56:24;;;;;;;19.50;15.93;;;;;;;8.31;100.00;95222.75;5010847;28;101861;-64
2022/11/16 10:58:57;;;;;;;18.83;16.83;;;;;;;8.35;100.00;95216.66;5013724;28;105723;-64
2022/11/16 11:01:32;;;;;;;20.23;15.70;;;;;;;8.21;100.00;95217.47;5029198;28;101744;-64
2022/11/16 11:04:13;;;;;;;17.43;14.90;;;;;;;8.26;100.00;95222.75;5010781;28;105175;-62
2022/11/16 11:06:41;;;;;;;17.97;16.07;;;;;;;8.32;100.00;95214.56;5026764;28;103044;-63
2022/11/16 11:09:16;;;;;;;19.53;16.90;;;;;;;8.38;100.00;95218.00;5013251;27;102096;-62
2022/11/16 11:14:54;;;;;;;21.87;16.03;;;;;;;8.33;100.00;95221.44;5002958;27;105989;-63
2022/11/16 11:17:21;;;;;;;17.67;15.73;;;;;;;8.38;100.00;95223.28;5019479;27;102223;-63
2022/11/16 11:19:57;;;;;;;17.50;15.70;;;;;;;8.44;100.00;95219.59;5030605;27;102399;-62
2022/11/16 11:22:24;;;;;;;18.20;16.13;;;;;;;8.43;100.00;95224.09;5030882;27;101754;-62
2022/11/16 11:24:51;;;;;;;18.07;16.17;;;;;;;8.40;100.00;95224.63;5008551;28;105297;-62
2022/11/16 11:27:22;;;;;;;20.57;16.80;;;;;;;8.39;100.00;95224.91;5026762;27;103037;-62
2022/11/16 11:29:54;;;;;;;19.17;16.47;;;;;;;8.46;100.00;95234.16;5033833;27;102388;-61
2022/11/16 11:32:23;;;;;;;20.60;18.47;;;;;;;8.44;100.00;95225.69;5028110;27;102463;-62
2022/11/16 11:34:53;;;;;;;20.90;18.80;;;;;;;8.45;100.00;95227.28;5023574;27;103345;-62
2022/11/16 11:37:23;;;;;;;19.97;17.93;;;;;;;8.52;100.00;95221.72;5007480;27;102250;-62
2022/11/16 11:40:18;;;;;;;18.47;16.57;;;;;;;8.55;100.00;95223.81;5005263;28;104953;-62
2022/11/16 11:42:54;;;;;;;17.87;15.40;;;;;;;8.61;100.00;95222.78;4992586;28;105387;-62
2022/11/16 11:45:28;;;;;;;16.27;14.57;;;;;;;8.67;100.00;95224.38;5019612;28;102924;-62
2022/11/16 11:48:01;;;;;;;16.73;14.77;;;;;;;8.70;100.00;95224.63;5022006;27;103250;-61
2022/11/16 11:50:40;;;;;;;15.00;13.50;;;;;;;8.75;100.00;95221.97;5027794;28;101791;-62
2022/11/16 11:53:16;;;;;;;14.43;12.67;;;;;;;8.80;100.00;95215.84;5027910;28;102393;-61
2022/11/16 11:55:42;;;;;;;15.93;12.77;;;;;;;8.87;100.00;95224.31;5027577;28;103123;-61
2022/11/16 11:58:16;;;;;;;15.37;13.87;;;;;;;9.05;100.00;95221.13;5010279;28;102421;-61
2022/11/16 12:00:58;;;;;;;14.97;13.40;;;;;;;9.07;100.00;95224.28;5009599;28;106322;-61
2022/11/16 12:03:52;;;;;;;13.73;12.30;;;;;;;9.18;100.00;95226.66;5027871;28;103285;-61
2022/11/16 12:06:28;;;;;;;15.20;13.60;;;;;;;9.30;100.00;95223.69;5013356;28;102051;-61
2022/11/16 12:09:06;;;;;;;13.80;12.40;;;;;;;9.42;100.00;95222.34;5027532;28;103111;-61
2022/11/16 12:11:43;;;;;;;14.07;12.17;;;;;;;9.42;100.00;95221.53;5028179;28;101785;-61
2022/11/16 12:14:25;;;;;;;14.37;12.83;;;;;;;9.48;100.00;95223.13;5027929;28;102801;-61
2022/11/16 12:17:02;;;;;;;22.57;16.93;;;;;;;9.52;100.00;95218.84;5027758;28;102814;-61
2022/11/16 12:19:56;;;;;;;12.87;11.30;;;;;;;9.65;100.00;95221.69;5009632;28;102293;-61
2022/11/16 12:22:46;;;;;;;14.40;12.57;;;;;;;9.75;100.00;95212.91;5009507;28;105631;-61
2022/11/16 12:25:23;;;;;;;34.47;23.37;;;;;;;9.95;100.00;95213.59;5024870;28;102646;-61
2022/11/16 12:28:06;;;;;;;32.20;22.10;;;;;;;10.15;100.00;95218.03;5009487;28;102280;-61
2022/11/16 12:30:41;;;;;;;23.80;18.33;;;;;;;10.30;100.00;95215.28;5030818;28;102854;-61